sensor_id;sensor_type;location;lat;lon;timestamp;P1;durP1;ratioP1;P2;durP2;ratioP2
7049;SDS011;22263;52.260;10.548;2024-03-08T00:01:10;0.60;;;0.60;;
7049;SDS011;22263;52.260;10.548;2024-03-08T00:03:43;0.60;;;0.60;;
7049;SDS011;22263;52.260;10.548;2024-03-08T00:06:13;0.50;;;0.50;;
7049;SDS011;22263;52.260;10.548;2024-03-08T00:08:43;0.50;;;0.50;;
7049;SDS011;22263;52.260;10.548;2024-03-08T00:11:12;0.63;;;0.63;;
7049;SDS011;22263;52.260;10.548;2024-03-08T00:13:42;0.57;;;0.57;;
7049;SDS011;22263;52.260;10.548;2024-03-08T00:16:13;0.60;;;0.60;;
7049;SDS011;22263;52.260;10.548;2024-03-08T00:18:45;0.65;;;0.65;;
7049;SDS011;22263;52.260;10.548;2024-03-08T00:21:16;0.50;;;0.50;;
7049;SDS011;22263;52.260;10.548;2024-03-08T00:23:46;0.60;;;0.60;;
7049;SDS011;22263;52.260;10.548;2024-03-08T00:26:15;0.70;;;0.70;;
7049;SDS011;22263;52.260;10.548;2024-03-08T00:28:45;0.70;;;0.70;;
7049;SDS011;22263;52.260;10.548;2024-03-08T00:31:15;0.60;;;0.60;;
7049;SDS011;22263;52.260;10.548;2024-03-08T00:33:47;0.52;;;0.52;;
7049;SDS011;22263;52.260;10.548;2024-03-08T00:36:19;0.68;;;0.68;;
7049;SDS011;22263;52.260;10.548;2024-03-08T00:38:49;0.52;;;0.52;;
7049;SDS011;22263;52.260;10.548;2024-03-08T00:41:19;0.70;;;0.70;;
7049;SDS011;22263;52.260;10.548;2024-03-08T00:43:49;0.60;;;0.60;;
7049;SDS011;22263;52.260;10.548;2024-03-08T00:46:18;0.70;;;0.70;;
7049;SDS011;22263;52.260;10.548;2024-03-08T00:48:51;0.60;;;0.60;;
7049;SDS011;22263;52.260;10.548;2024-03-08T00:51:21;0.50;;;0.50;;
7049;SDS011;22263;52.260;10.548;2024-03-08T00:53:51;0.70;;;0.70;;
7049;SDS011;22263;52.260;10.548;2024-03-08T00:56:24;0.63;;;0.63;;
7049;SDS011;22263;52.260;10.548;2024-03-08T00:58:54;0.65;;;0.65;;
7049;SDS011;22263;52.260;10.548;2024-03-08T01:01:25;0.60;;;0.60;;
7049;SDS011;22263;52.260;10.548;2024-03-08T01:03:58;0.60;;;0.60;;
7049;SDS011;22263;52.260;10.548;2024-03-08T01:06:28;0.60;;;0.60;;
7049;SDS011;22263;52.260;10.548;2024-03-08T01:08:58;0.60;;;0.60;;
7049;SDS011;22263;52.260;10.548;2024-03-08T01:11:28;0.70;;;0.70;;
7049;SDS011;22263;52.260;10.548;2024-03-08T01:13:58;0.60;;;0.60;;
7049;SDS011;22263;52.260;10.548;2024-03-08T01:16:27;0.60;;;0.60;;
7049;SDS011;22263;52.260;10.548;2024-03-08T01:19:02;0.70;;;0.70;;
7049;SDS011;22263;52.260;10.548;2024-03-08T01:21:32;0.70;;;0.70;;
7049;SDS011;22263;52.260;10.548;2024-03-08T01:24:03;0.60;;;0.60;;
7049;SDS011;22263;52.260;10.548;2024-03-08T01:26:33;0.70;;;0.70;;
7049;SDS011;22263;52.260;10.548;2024-03-08T01:29:03;0.75;;;0.75;;
7049;SDS011;22263;52.260;10.548;2024-03-08T01:31:34;0.80;;;0.80;;
7049;SDS011;22263;52.260;10.548;2024-03-08T01:34:07;0.68;;;0.68;;
7049;SDS011;22263;52.260;10.548;2024-03-08T01:36:40;0.60;;;0.60;;
7049;SDS011;22263;52.260;10.548;2024-03-08T01:39:10;0.60;;;0.60;;
7049;SDS011;22263;52.260;10.548;2024-03-08T01:41:40;0.60;;;0.60;;
7049;SDS011;22263;52.260;10.548;2024-03-08T01:44:10;0.60;;;0.60;;
7049;SDS011;22263;52.260;10.548;2024-03-08T01:46:44;0.60;;;0.60;;
7049;SDS011;22263;52.260;10.548;2024-03-08T01:49:17;0.50;;;0.50;;
7049;SDS011;22263;52.260;10.548;2024-03-08T01:51:48;0.60;;;0.60;;
7049;SDS011;22263;52.260;10.548;2024-03-08T01:54:19;0.60;;;0.60;;
7049;SDS011;22263;52.260;10.548;2024-03-08T01:56:50;0.75;;;0.75;;
7049;SDS011;22263;52.260;10.548;2024-03-08T01:59:20;0.50;;;0.50;;
7049;SDS011;22263;52.260;10.548;2024-03-08T02:01:50;0.70;;;0.70;;
7049;SDS011;22263;52.260;10.548;2024-03-08T02:04:22;0.50;;;0.50;;
7049;SDS011;22263;52.260;10.548;2024-03-08T02:06:53;0.60;;;0.60;;
7049;SDS011;22263;52.260;10.548;2024-03-08T02:09:26;0.60;;;0.60;;
7049;SDS011;22263;52.260;10.548;2024-03-08T02:11:55;0.60;;;0.60;;
7049;SDS011;22263;52.260;10.548;2024-03-08T02:14:31;0.60;;;0.60;;
7049;SDS011;22263;52.260;10.548;2024-03-08T02:17:01;0.57;;;0.57;;
7049;SDS011;22263;52.260;10.548;2024-03-08T02:19:34;0.60;;;0.60;;
7049;SDS011;22263;52.260;10.548;2024-03-08T02:22:06;0.68;;;0.68;;
7049;SDS011;22263;52.260;10.548;2024-03-08T02:24:36;0.60;;;0.60;;
7049;SDS011;22263;52.260;10.548;2024-03-08T02:27:06;0.60;;;0.60;;
7049;SDS011;22263;52.260;10.548;2024-03-08T02:29:38;0.50;;;0.50;;
7049;SDS011;22263;52.260;10.548;2024-03-08T02:32:09;0.73;;;0.73;;
7049;SDS011;22263;52.260;10.548;2024-03-08T02:34:39;0.70;;;0.70;;
7049;SDS011;22263;52.260;10.548;2024-03-08T02:37:12;0.60;;;0.60;;
7049;SDS011;22263;52.260;10.548;2024-03-08T02:39:42;0.60;;;0.60;;
7049;SDS011;22263;52.260;10.548;2024-03-08T02:42:11;0.65;;;0.65;;
7049;SDS011;22263;52.260;10.548;2024-03-08T02:44:42;0.70;;;0.70;;
7049;SDS011;22263;52.260;10.548;2024-03-08T02:47:12;0.75;;;0.75;;
7049;SDS011;22263;52.260;10.548;2024-03-08T02:49:42;0.60;;;0.60;;
7049;SDS011;22263;52.260;10.548;2024-03-08T02:52:14;0.60;;;0.60;;
7049;SDS011;22263;52.260;10.548;2024-03-08T02:54:47;0.80;;;0.80;;
7049;SDS011;22263;52.260;10.548;2024-03-08T02:57:17;0.80;;;0.80;;
7049;SDS011;22263;52.260;10.548;2024-03-08T02:59:47;0.70;;;0.70;;
7049;SDS011;22263;52.260;10.548;2024-03-08T03:02:17;0.70;;;0.70;;
7049;SDS011;22263;52.260;10.548;2024-03-08T03:04:48;0.70;;;0.70;;
7049;SDS011;22263;52.260;10.548;2024-03-08T03:07:20;0.80;;;0.80;;
7049;SDS011;22263;52.260;10.548;2024-03-08T03:09:50;0.50;;;0.50;;
7049;SDS011;22263;52.260;10.548;2024-03-08T03:12:20;0.80;;;0.80;;
7049;SDS011;22263;52.260;10.548;2024-03-08T03:14:50;0.88;;;0.88;;
7049;SDS011;22263;52.260;10.548;2024-03-08T03:17:19;0.60;;;0.60;;
7049;SDS011;22263;52.260;10.548;2024-03-08T03:19:49;0.68;;;0.68;;
7049;SDS011;22263;52.260;10.548;2024-03-08T03:22:22;0.50;;;0.50;;
7049;SDS011;22263;52.260;10.548;2024-03-08T03:24:52;0.80;;;0.80;;
7049;SDS011;22263;52.260;10.548;2024-03-08T03:27:24;0.60;;;0.60;;
7049;SDS011;22263;52.260;10.548;2024-03-08T03:29:54;0.50;;;0.50;;
7049;SDS011;22263;52.260;10.548;2024-03-08T03:32:24;0.70;;;0.70;;
7049;SDS011;22263;52.260;10.548;2024-03-08T03:34:55;0.80;;;0.80;;
7049;SDS011;22263;52.260;10.548;2024-03-08T03:37:27;0.80;;;0.80;;
7049;SDS011;22263;52.260;10.548;2024-03-08T03:39:57;0.70;;;0.70;;
7049;SDS011;22263;52.260;10.548;2024-03-08T03:42:28;0.70;;;0.70;;
7049;SDS011;22263;52.260;10.548;2024-03-08T03:44:58;0.50;;;0.50;;
7049;SDS011;22263;52.260;10.548;2024-03-08T03:47:29;0.80;;;0.80;;
7049;SDS011;22263;52.260;10.548;2024-03-08T03:49:58;0.80;;;0.80;;
7049;SDS011;22263;52.260;10.548;2024-03-08T03:52:32;0.70;;;0.70;;
7049;SDS011;22263;52.260;10.548;2024-03-08T03:55:02;0.80;;;0.80;;
7049;SDS011;22263;52.260;10.548;2024-03-08T03:57:34;0.70;;;0.70;;
7049;SDS011;22263;52.260;10.548;2024-03-08T04:00:06;0.60;;;0.60;;
7049;SDS011;22263;52.260;10.548;2024-03-08T04:02:38;0.70;;;0.70;;
7049;SDS011;22263;52.260;10.548;2024-03-08T04:05:08;0.60;;;0.60;;
7049;SDS011;22263;52.260;10.548;2024-03-08T04:07:42;0.55;;;0.55;;
7049;SDS011;22263;52.260;10.548;2024-03-08T04:10:12;0.60;;;0.60;;
7049;SDS011;22263;52.260;10.548;2024-03-08T04:12:41;0.65;;;0.65;;
7049;SDS011;22263;52.260;10.548;2024-03-08T04:15:12;0.70;;;0.70;;
7049;SDS011;22263;52.260;10.548;2024-03-08T04:17:42;0.50;;;0.50;;
7049;SDS011;22263;52.260;10.548;2024-03-08T04:20:13;0.60;;;0.60;;
7049;SDS011;22263;52.260;10.548;2024-03-08T04:22:47;0.50;;;0.50;;
7049;SDS011;22263;52.260;10.548;2024-03-08T04:25:17;0.63;;;0.63;;
7049;SDS011;22263;52.260;10.548;2024-03-08T04:27:47;0.60;;;0.60;;
7049;SDS011;22263;52.260;10.548;2024-03-08T04:30:19;0.77;;;0.77;;
7049;SDS011;22263;52.260;10.548;2024-03-08T04:32:49;0.70;;;0.70;;
7049;SDS011;22263;52.260;10.548;2024-03-08T04:35:19;0.80;;;0.80;;
7049;SDS011;22263;52.260;10.548;2024-03-08T04:37:52;0.80;;;0.80;;
7049;SDS011;22263;52.260;10.548;2024-03-08T04:40:24;0.43;;;0.43;;
7049;SDS011;22263;52.260;10.548;2024-03-08T04:42:54;0.50;;;0.50;;
7049;SDS011;22263;52.260;10.548;2024-03-08T04:45:23;0.60;;;0.60;;
7049;SDS011;22263;52.260;10.548;2024-03-08T04:47:54;0.50;;;0.50;;
7049;SDS011;22263;52.260;10.548;2024-03-08T04:50:24;0.70;;;0.70;;
7049;SDS011;22263;52.260;10.548;2024-03-08T04:52:58;0.90;;;0.90;;
7049;SDS011;22263;52.260;10.548;2024-03-08T04:55:29;0.70;;;0.70;;
7049;SDS011;22263;52.260;10.548;2024-03-08T04:57:59;0.70;;;0.70;;
7049;SDS011;22263;52.260;10.548;2024-03-08T05:00:31;0.75;;;0.75;;
7049;SDS011;22263;52.260;10.548;2024-03-08T05:03:01;0.80;;;0.80;;
7049;SDS011;22263;52.260;10.548;2024-03-08T05:05:31;0.70;;;0.70;;
7049;SDS011;22263;52.260;10.548;2024-03-08T05:08:04;0.60;;;0.60;;
7049;SDS011;22263;52.260;10.548;2024-03-08T05:10:34;0.75;;;0.75;;
7049;SDS011;22263;52.260;10.548;2024-03-08T05:13:04;0.77;;;0.77;;
7049;SDS011;22263;52.260;10.548;2024-03-08T05:15:34;0.80;;;0.80;;
7049;SDS011;22263;52.260;10.548;2024-03-08T05:18:06;0.70;;;0.70;;
7049;SDS011;22263;52.260;10.548;2024-03-08T05:20:38;0.57;;;0.57;;
7049;SDS011;22263;52.260;10.548;2024-03-08T05:23:10;0.77;;;0.77;;
7049;SDS011;22263;52.260;10.548;2024-03-08T05:25:40;0.60;;;0.60;;
7049;SDS011;22263;52.260;10.548;2024-03-08T05:28:10;0.70;;;0.70;;
7049;SDS011;22263;52.260;10.548;2024-03-08T05:30:40;0.70;;;0.70;;
7049;SDS011;22263;52.260;10.548;2024-03-08T05:33:10;0.68;;;0.68;;
7049;SDS011;22263;52.260;10.548;2024-03-08T05:35:41;0.80;;;0.80;;
7049;SDS011;22263;52.260;10.548;2024-03-08T05:38:13;0.60;;;0.60;;
7049;SDS011;22263;52.260;10.548;2024-03-08T05:40:43;0.63;;;0.63;;
7049;SDS011;22263;52.260;10.548;2024-03-08T05:43:13;0.80;;;0.80;;
7049;SDS011;22263;52.260;10.548;2024-03-08T05:45:46;0.80;;;0.80;;
7049;SDS011;22263;52.260;10.548;2024-03-08T05:48:16;0.60;;;0.60;;
7049;SDS011;22263;52.260;10.548;2024-03-08T05:50:47;0.60;;;0.60;;
7049;SDS011;22263;52.260;10.548;2024-03-08T05:53:20;0.70;;;0.70;;
7049;SDS011;22263;52.260;10.548;2024-03-08T05:55:49;0.60;;;0.60;;
7049;SDS011;22263;52.260;10.548;2024-03-08T05:58:20;0.70;;;0.70;;
7049;SDS011;22263;52.260;10.548;2024-03-08T06:00:50;0.80;;;0.80;;
7049;SDS011;22263;52.260;10.548;2024-03-08T06:03:20;0.77;;;0.77;;
7049;SDS011;22263;52.260;10.548;2024-03-08T06:05:50;0.60;;;0.60;;
7049;SDS011;22263;52.260;10.548;2024-03-08T06:08:23;0.70;;;0.70;;
7049;SDS011;22263;52.260;10.548;2024-03-08T06:10:57;0.70;;;0.70;;
7049;SDS011;22263;52.260;10.548;2024-03-08T06:13:29;0.70;;;0.70;;
7049;SDS011;22263;52.260;10.548;2024-03-08T06:16:00;0.80;;;0.80;;
7049;SDS011;22263;52.260;10.548;2024-03-08T06:18:31;0.50;;;0.50;;
7049;SDS011;22263;52.260;10.548;2024-03-08T06:21:03;0.80;;;0.80;;
7049;SDS011;22263;52.260;10.548;2024-03-08T06:23:38;0.80;;;0.80;;
7049;SDS011;22263;52.260;10.548;2024-03-08T06:26:08;0.60;;;0.60;;
7049;SDS011;22263;52.260;10.548;2024-03-08T06:28:38;0.70;;;0.70;;
7049;SDS011;22263;52.260;10.548;2024-03-08T06:31:05;0.80;;;0.80;;
7049;SDS011;22263;52.260;10.548;2024-03-08T06:33:37;0.57;;;0.57;;
7049;SDS011;22263;52.260;10.548;2024-03-08T06:36:07;0.60;;;0.60;;
7049;SDS011;22263;52.260;10.548;2024-03-08T06:38:41;0.60;;;0.60;;
7049;SDS011;22263;52.260;10.548;2024-03-08T06:41:13;0.80;;;0.80;;
7049;SDS011;22263;52.260;10.548;2024-03-08T06:43:43;0.88;;;0.88;;
7049;SDS011;22263;52.260;10.548;2024-03-08T06:46:15;0.70;;;0.70;;
7049;SDS011;22263;52.260;10.548;2024-03-08T06:48:47;0.90;;;0.90;;
7049;SDS011;22263;52.260;10.548;2024-03-08T06:51:21;0.80;;;0.80;;
7049;SDS011;22263;52.260;10.548;2024-03-08T06:53:53;0.65;;;0.65;;
7049;SDS011;22263;52.260;10.548;2024-03-08T06:56:25;0.60;;;0.60;;
7049;SDS011;22263;52.260;10.548;2024-03-08T06:58:56;0.63;;;0.63;;
7049;SDS011;22263;52.260;10.548;2024-03-08T07:01:26;0.80;;;0.80;;
7049;SDS011;22263;52.260;10.548;2024-03-08T07:03:58;0.60;;;0.60;;
7049;SDS011;22263;52.260;10.548;2024-03-08T07:06:32;0.70;;;0.70;;
7049;SDS011;22263;52.260;10.548;2024-03-08T07:09:06;0.60;;;0.60;;
7049;SDS011;22263;52.260;10.548;2024-03-08T07:11:36;0.65;;;0.65;;
7049;SDS011;22263;52.260;10.548;2024-03-08T07:14:10;0.55;;;0.55;;
7049;SDS011;22263;52.260;10.548;2024-03-08T07:16:42;0.60;;;0.60;;
7049;SDS011;22263;52.260;10.548;2024-03-08T07:19:12;0.60;;;0.60;;
7049;SDS011;22263;52.260;10.548;2024-03-08T07:21:42;0.60;;;0.60;;
7049;SDS011;22263;52.260;10.548;2024-03-08T07:24:16;0.50;;;0.50;;
7049;SDS011;22263;52.260;10.548;2024-03-08T07:27:04;0.50;;;0.50;;
7049;SDS011;22263;52.260;10.548;2024-03-08T07:29:34;0.50;;;0.50;;
7049;SDS011;22263;52.260;10.548;2024-03-08T07:32:04;0.50;;;0.50;;
7049;SDS011;22263;52.260;10.548;2024-03-08T07:34:47;0.52;;;0.52;;
7049;SDS011;22263;52.260;10.548;2024-03-08T07:37:18;0.50;;;0.50;;
7049;SDS011;22263;52.260;10.548;2024-03-08T07:39:51;0.50;;;0.50;;
7049;SDS011;22263;52.260;10.548;2024-03-08T07:42:20;0.52;;;0.52;;
7049;SDS011;22263;52.260;10.548;2024-03-08T07:44:50;0.50;;;0.50;;
7049;SDS011;22263;52.260;10.548;2024-03-08T07:47:21;0.60;;;0.60;;
7049;SDS011;22263;52.260;10.548;2024-03-08T07:49:53;0.60;;;0.60;;
7049;SDS011;22263;52.260;10.548;2024-03-08T07:52:28;0.50;;;0.50;;
7049;SDS011;22263;52.260;10.548;2024-03-08T07:55:00;0.60;;;0.60;;
7049;SDS011;22263;52.260;10.548;2024-03-08T07:57:30;0.60;;;0.60;;
7049;SDS011;22263;52.260;10.548;2024-03-08T08:00:00;0.50;;;0.50;;
7049;SDS011;22263;52.260;10.548;2024-03-08T08:02:34;0.70;;;0.70;;
7049;SDS011;22263;52.260;10.548;2024-03-08T08:05:06;0.50;;;0.50;;
7049;SDS011;22263;52.260;10.548;2024-03-08T08:07:37;0.60;;;0.60;;
7049;SDS011;22263;52.260;10.548;2024-03-08T08:10:11;0.50;;;0.50;;
7049;SDS011;22263;52.260;10.548;2024-03-08T08:12:45;0.50;;;0.50;;
7049;SDS011;22263;52.260;10.548;2024-03-08T08:15:15;0.60;;;0.60;;
7049;SDS011;22263;52.260;10.548;2024-03-08T08:17:45;0.50;;;0.50;;
7049;SDS011;22263;52.260;10.548;2024-03-08T08:20:16;0.50;;;0.50;;
7049;SDS011;22263;52.260;10.548;2024-03-08T08:22:46;0.50;;;0.50;;
7049;SDS011;22263;52.260;10.548;2024-03-08T08:25:18;0.60;;;0.60;;
7049;SDS011;22263;52.260;10.548;2024-03-08T08:27:51;0.40;;;0.40;;
7049;SDS011;22263;52.260;10.548;2024-03-08T08:30:21;0.60;;;0.60;;
7049;SDS011;22263;52.260;10.548;2024-03-08T08:32:51;0.50;;;0.50;;
7049;SDS011;22263;52.260;10.548;2024-03-08T08:35:21;0.50;;;0.50;;
7049;SDS011;22263;52.260;10.548;2024-03-08T08:37:52;0.40;;;0.40;;
7049;SDS011;22263;52.260;10.548;2024-03-08T08:40:24;0.50;;;0.50;;
7049;SDS011;22263;52.260;10.548;2024-03-08T08:42:56;0.50;;;0.50;;
7049;SDS011;22263;52.260;10.548;2024-03-08T08:45:26;0.50;;;0.50;;
7049;SDS011;22263;52.260;10.548;2024-03-08T08:47:57;0.50;;;0.50;;
7049;SDS011;22263;52.260;10.548;2024-03-08T08:50:28;0.40;;;0.40;;
7049;SDS011;22263;52.260;10.548;2024-03-08T08:52:58;0.40;;;0.40;;
7049;SDS011;22263;52.260;10.548;2024-03-08T08:55:33;0.40;;;0.40;;
7049;SDS011;22263;52.260;10.548;2024-03-08T08:58:03;0.40;;;0.40;;
7049;SDS011;22263;52.260;10.548;2024-03-08T09:00:33;0.40;;;0.40;;
7049;SDS011;22263;52.260;10.548;2024-03-08T09:03:03;0.40;;;0.40;;
7049;SDS011;22263;52.260;10.548;2024-03-08T09:05:34;0.40;;;0.40;;
7049;SDS011;22263;52.260;10.548;2024-03-08T09:08:06;0.40;;;0.40;;
7049;SDS011;22263;52.260;10.548;2024-03-08T09:10:38;0.40;;;0.40;;
7049;SDS011;22263;52.260;10.548;2024-03-08T09:13:10;0.40;;;0.40;;
7049;SDS011;22263;52.260;10.548;2024-03-08T09:15:50;0.40;;;0.40;;
7049;SDS011;22263;52.260;10.548;2024-03-08T09:18:21;0.40;;;0.40;;
7049;SDS011;22263;52.260;10.548;2024-03-08T09:20:51;0.40;;;0.40;;
7049;SDS011;22263;52.260;10.548;2024-03-08T09:23:22;0.40;;;0.40;;
7049;SDS011;22263;52.260;10.548;2024-03-08T09:25:59;0.40;;;0.40;;
7049;SDS011;22263;52.260;10.548;2024-03-08T09:28:36;0.40;;;0.40;;
7049;SDS011;22263;52.260;10.548;2024-03-08T09:31:05;0.40;;;0.40;;
7049;SDS011;22263;52.260;10.548;2024-03-08T09:33:38;0.40;;;0.40;;
7049;SDS011;22263;52.260;10.548;2024-03-08T09:36:08;0.40;;;0.40;;
7049;SDS011;22263;52.260;10.548;2024-03-08T09:38:40;0.35;;;0.35;;
7049;SDS011;22263;52.260;10.548;2024-03-08T09:41:13;0.40;;;0.40;;
7049;SDS011;22263;52.260;10.548;2024-03-08T09:43:43;0.40;;;0.40;;
7049;SDS011;22263;52.260;10.548;2024-03-08T09:46:14;0.38;;;0.38;;
7049;SDS011;22263;52.260;10.548;2024-03-08T09:48:45;0.40;;;0.40;;
7049;SDS011;22263;52.260;10.548;2024-03-08T09:51:15;0.40;;;0.40;;
7049;SDS011;22263;52.260;10.548;2024-03-08T09:53:46;0.40;;;0.40;;
7049;SDS011;22263;52.260;10.548;2024-03-08T09:56:18;0.40;;;0.40;;
7049;SDS011;22263;52.260;10.548;2024-03-08T09:58:49;0.40;;;0.40;;
7049;SDS011;22263;52.260;10.548;2024-03-08T10:01:41;0.40;;;0.40;;
7049;SDS011;22263;52.260;10.548;2024-03-08T10:04:11;0.50;;;0.50;;
7049;SDS011;22263;52.260;10.548;2024-03-08T10:06:41;0.40;;;0.40;;
7049;SDS011;22263;52.260;10.548;2024-03-08T10:09:11;0.40;;;0.40;;
7049;SDS011;22263;52.260;10.548;2024-03-08T10:11:43;0.30;;;0.30;;
7049;SDS011;22263;52.260;10.548;2024-03-08T10:14:15;0.40;;;0.40;;
7049;SDS011;22263;52.260;10.548;2024-03-08T10:16:45;0.50;;;0.50;;
7049;SDS011;22263;52.260;10.548;2024-03-08T10:19:15;0.40;;;0.40;;
7049;SDS011;22263;52.260;10.548;2024-03-08T10:21:48;0.30;;;0.30;;
7049;SDS011;22263;52.260;10.548;2024-03-08T10:24:20;0.40;;;0.40;;
7049;SDS011;22263;52.260;10.548;2024-03-08T10:26:53;0.40;;;0.40;;
7049;SDS011;22263;52.260;10.548;2024-03-08T10:29:28;0.40;;;0.40;;
7049;SDS011;22263;52.260;10.548;2024-03-08T10:31:58;0.30;;;0.30;;
7049;SDS011;22263;52.260;10.548;2024-03-08T10:34:28;0.40;;;0.40;;
7049;SDS011;22263;52.260;10.548;2024-03-08T10:36:59;0.40;;;0.40;;
7049;SDS011;22263;52.260;10.548;2024-03-08T10:39:34;0.40;;;0.40;;
7049;SDS011;22263;52.260;10.548;2024-03-08T10:42:09;0.38;;;0.38;;
7049;SDS011;22263;52.260;10.548;2024-03-08T10:44:49;0.40;;;0.40;;
7049;SDS011;22263;52.260;10.548;2024-03-08T10:47:24;0.40;;;0.40;;
7049;SDS011;22263;52.260;10.548;2024-03-08T10:49:59;0.40;;;0.40;;
7049;SDS011;22263;52.260;10.548;2024-03-08T10:52:39;0.40;;;0.40;;
7049;SDS011;22263;52.260;10.548;2024-03-08T10:55:09;0.40;;;0.40;;
7049;SDS011;22263;52.260;10.548;2024-03-08T10:57:44;0.50;;;0.50;;
7049;SDS011;22263;52.260;10.548;2024-03-08T11:00:14;0.50;;;0.50;;
7049;SDS011;22263;52.260;10.548;2024-03-08T11:02:53;0.50;;;0.50;;
7049;SDS011;22263;52.260;10.548;2024-03-08T11:05:36;0.43;;;0.43;;
7049;SDS011;22263;52.260;10.548;2024-03-08T11:08:16;0.50;;;0.50;;
7049;SDS011;22263;52.260;10.548;2024-03-08T11:10:51;0.40;;;0.40;;
7049;SDS011;22263;52.260;10.548;2024-03-08T11:13:35;0.40;;;0.40;;
7049;SDS011;22263;52.260;10.548;2024-03-08T11:16:07;0.38;;;0.38;;
7049;SDS011;22263;52.260;10.548;2024-03-08T11:18:36;0.30;;;0.30;;
7049;SDS011;22263;52.260;10.548;2024-03-08T11:21:07;0.40;;;0.40;;
7049;SDS011;22263;52.260;10.548;2024-03-08T11:23:40;0.30;;;0.30;;
7049;SDS011;22263;52.260;10.548;2024-03-08T11:26:19;0.30;;;0.30;;
7049;SDS011;22263;52.260;10.548;2024-03-08T11:28:56;0.40;;;0.40;;
7049;SDS011;22263;52.260;10.548;2024-03-08T11:32:09;0.40;;;0.40;;
7049;SDS011;22263;52.260;10.548;2024-03-08T11:34:40;0.40;;;0.40;;
7049;SDS011;22263;52.260;10.548;2024-03-08T11:37:12;0.40;;;0.40;;
7049;SDS011;22263;52.260;10.548;2024-03-08T11:39:48;0.40;;;0.40;;
7049;SDS011;22263;52.260;10.548;2024-03-08T11:42:19;0.43;;;0.43;;
7049;SDS011;22263;52.260;10.548;2024-03-08T11:44:52;0.40;;;0.40;;
7049;SDS011;22263;52.260;10.548;2024-03-08T11:47:23;0.40;;;0.40;;
7049;SDS011;22263;52.260;10.548;2024-03-08T11:49:53;0.40;;;0.40;;
7049;SDS011;22263;52.260;10.548;2024-03-08T11:52:23;0.40;;;0.40;;
7049;SDS011;22263;52.260;10.548;2024-03-08T11:54:54;0.40;;;0.40;;
7049;SDS011;22263;52.260;10.548;2024-03-08T11:57:25;0.43;;;0.43;;
7049;SDS011;22263;52.260;10.548;2024-03-08T11:59:59;0.40;;;0.40;;
7049;SDS011;22263;52.260;10.548;2024-03-08T12:02:34;0.50;;;0.50;;
7049;SDS011;22263;52.260;10.548;2024-03-08T12:05:05;0.40;;;0.40;;
7049;SDS011;22263;52.260;10.548;2024-03-08T12:07:36;0.40;;;0.40;;
7049;SDS011;22263;52.260;10.548;2024-03-08T12:10:16;0.40;;;0.40;;
7049;SDS011;22263;52.260;10.548;2024-03-08T12:12:49;0.30;;;0.30;;
7049;SDS011;22263;52.260;10.548;2024-03-08T12:15:23;0.30;;;0.30;;
7049;SDS011;22263;52.260;10.548;2024-03-08T12:17:54;0.40;;;0.40;;
7049;SDS011;22263;52.260;10.548;2024-03-08T12:20:25;0.40;;;0.40;;
7049;SDS011;22263;52.260;10.548;2024-03-08T12:22:57;0.30;;;0.30;;
7049;SDS011;22263;52.260;10.548;2024-03-08T12:25:29;0.40;;;0.40;;
7049;SDS011;22263;52.260;10.548;2024-03-08T12:28:08;0.40;;;0.40;;
7049;SDS011;22263;52.260;10.548;2024-03-08T12:30:48;0.38;;;0.38;;
7049;SDS011;22263;52.260;10.548;2024-03-08T12:33:19;0.30;;;0.30;;
7049;SDS011;22263;52.260;10.548;2024-03-08T12:35:52;0.40;;;0.40;;
7049;SDS011;22263;52.260;10.548;2024-03-08T12:38:27;0.30;;;0.30;;
7049;SDS011;22263;52.260;10.548;2024-03-08T12:40:59;0.40;;;0.40;;
7049;SDS011;22263;52.260;10.548;2024-03-08T12:43:30;0.32;;;0.32;;
7049;SDS011;22263;52.260;10.548;2024-03-08T12:46:03;0.40;;;0.40;;
7049;SDS011;22263;52.260;10.548;2024-03-08T12:48:35;0.40;;;0.40;;
7049;SDS011;22263;52.260;10.548;2024-03-08T12:51:07;0.30;;;0.30;;
7049;SDS011;22263;52.260;10.548;2024-03-08T12:53:37;0.40;;;0.40;;
7049;SDS011;22263;52.260;10.548;2024-03-08T12:56:07;0.40;;;0.40;;
7049;SDS011;22263;52.260;10.548;2024-03-08T12:58:37;0.40;;;0.40;;
7049;SDS011;22263;52.260;10.548;2024-03-08T13:01:11;0.40;;;0.40;;
7049;SDS011;22263;52.260;10.548;2024-03-08T13:03:42;0.40;;;0.40;;
7049;SDS011;22263;52.260;10.548;2024-03-08T13:06:13;0.40;;;0.40;;
7049;SDS011;22263;52.260;10.548;2024-03-08T13:08:42;0.40;;;0.40;;
7049;SDS011;22263;52.260;10.548;2024-03-08T13:11:12;0.40;;;0.40;;
7049;SDS011;22263;52.260;10.548;2024-03-08T13:13:43;0.40;;;0.40;;
7049;SDS011;22263;52.260;10.548;2024-03-08T13:16:16;0.38;;;0.38;;
7049;SDS011;22263;52.260;10.548;2024-03-08T13:18:46;0.40;;;0.40;;
7049;SDS011;22263;52.260;10.548;2024-03-08T13:21:20;0.30;;;0.30;;
7049;SDS011;22263;52.260;10.548;2024-03-08T13:23:51;0.40;;;0.40;;
7049;SDS011;22263;52.260;10.548;2024-03-08T13:26:21;0.40;;;0.40;;
7049;SDS011;22263;52.260;10.548;2024-03-08T13:28:53;0.30;;;0.30;;
7049;SDS011;22263;52.260;10.548;2024-03-08T13:31:27;0.30;;;0.30;;
7049;SDS011;22263;52.260;10.548;2024-03-08T13:33:58;0.40;;;0.40;;
7049;SDS011;22263;52.260;10.548;2024-03-08T13:36:28;0.40;;;0.40;;
7049;SDS011;22263;52.260;10.548;2024-03-08T13:39:05;0.30;;;0.30;;
7049;SDS011;22263;52.260;10.548;2024-03-08T13:41:42;0.40;;;0.40;;
7049;SDS011;22263;52.260;10.548;2024-03-08T13:44:12;0.50;;;0.50;;
7049;SDS011;22263;52.260;10.548;2024-03-08T13:46:46;0.40;;;0.40;;
7049;SDS011;22263;52.260;10.548;2024-03-08T13:49:19;0.40;;;0.40;;
7049;SDS011;22263;52.260;10.548;2024-03-08T13:51:49;0.35;;;0.35;;
7049;SDS011;22263;52.260;10.548;2024-03-08T13:54:21;0.30;;;0.30;;
7049;SDS011;22263;52.260;10.548;2024-03-08T13:56:50;0.40;;;0.40;;
7049;SDS011;22263;52.260;10.548;2024-03-08T13:59:21;0.30;;;0.30;;
7049;SDS011;22263;52.260;10.548;2024-03-08T14:01:54;0.30;;;0.30;;
7049;SDS011;22263;52.260;10.548;2024-03-08T14:04:24;0.40;;;0.40;;
7049;SDS011;22263;52.260;10.548;2024-03-08T14:06:54;0.30;;;0.30;;
7049;SDS011;22263;52.260;10.548;2024-03-08T14:09:30;0.40;;;0.40;;
7049;SDS011;22263;52.260;10.548;2024-03-08T14:12:04;0.30;;;0.30;;
7049;SDS011;22263;52.260;10.548;2024-03-08T14:14:34;0.40;;;0.40;;
7049;SDS011;22263;52.260;10.548;2024-03-08T14:17:07;0.40;;;0.40;;
7049;SDS011;22263;52.260;10.548;2024-03-08T14:19:38;0.40;;;0.40;;
7049;SDS011;22263;52.260;10.548;2024-03-08T14:22:08;0.40;;;0.40;;
7049;SDS011;22263;52.260;10.548;2024-03-08T14:24:41;0.30;;;0.30;;
7049;SDS011;22263;52.260;10.548;2024-03-08T14:27:11;0.40;;;0.40;;
7049;SDS011;22263;52.260;10.548;2024-03-08T14:29:45;0.40;;;0.40;;
7049;SDS011;22263;52.260;10.548;2024-03-08T14:32:17;0.40;;;0.40;;
7049;SDS011;22263;52.260;10.548;2024-03-08T14:34:49;0.40;;;0.40;;
7049;SDS011;22263;52.260;10.548;2024-03-08T14:37:22;0.40;;;0.40;;
7049;SDS011;22263;52.260;10.548;2024-03-08T14:39:56;0.40;;;0.40;;
7049;SDS011;22263;52.260;10.548;2024-03-08T14:42:25;0.30;;;0.30;;
7049;SDS011;22263;52.260;10.548;2024-03-08T14:44:59;0.40;;;0.40;;
7049;SDS011;22263;52.260;10.548;2024-03-08T14:47:33;0.40;;;0.40;;
7049;SDS011;22263;52.260;10.548;2024-03-08T14:50:05;0.40;;;0.40;;
7049;SDS011;22263;52.260;10.548;2024-03-08T14:52:36;0.40;;;0.40;;
7049;SDS011;22263;52.260;10.548;2024-03-08T14:55:07;0.40;;;0.40;;
7049;SDS011;22263;52.260;10.548;2024-03-08T14:57:41;0.40;;;0.40;;
7049;SDS011;22263;52.260;10.548;2024-03-08T15:00:12;0.40;;;0.40;;
7049;SDS011;22263;52.260;10.548;2024-03-08T15:02:56;0.43;;;0.43;;
7049;SDS011;22263;52.260;10.548;2024-03-08T15:05:26;0.40;;;0.40;;
7049;SDS011;22263;52.260;10.548;2024-03-08T15:07:59;0.40;;;0.40;;
7049;SDS011;22263;52.260;10.548;2024-03-08T15:10:38;0.38;;;0.38;;
7049;SDS011;22263;52.260;10.548;2024-03-08T15:13:09;0.40;;;0.40;;
7049;SDS011;22263;52.260;10.548;2024-03-08T15:15:49;0.40;;;0.40;;